Selsey, United Kingdom
Current Conditions -  °F | °C
As of 2:20 PM on Tuesday 21 Oct 2014 (Local Time) from EGKA Reporting Station
Scattered Clouds Scattered Clouds  
Wind Chill: 14°   Ceiling: Unl
Heat Index: 14°   Visibility: 6mi
Dew Point:   Wind: 28mph
Humidity: 51%   Direction: 290°WNW
Pressure: 29.8"   Gusts: 41mph
Location:  50.74°N, 0.79°W
Report Text: EGKA 211320Z 29024G36KT 9999 SCT033 14/04 Q1009
Loading
Personal Weather Stations






























Interactive Weather Map
Tropical Storm Tracking
New forecast layout! Learn more

10-Day Weather Forecast

Advertisements
Track Severe Weather on mobile